Time;durP1;ratioP1;P1;durP2;ratioP2;P2;SDS_P1;SDS_P2;PMS_P1;PMS_P2;Temp;Humidity;BMP_temperature;BMP_pressure;BME280_temperature;BME280_humidity;BME280_pressure;Samples;Min_cycle;Max_cycle;Signal;HPM_P1;HPM_P2
2023/08/13 00:01:07;;;;;;;12.32;1.77;;;;;;;12.96;55.24;101542.78;4985381;28;20777;-78
2023/08/13 00:03:33;;;;;;;7.70;1.33;;;;;;;12.94;54.87;101536.72;4992182;28;20052;-77
2023/08/13 00:05:58;;;;;;;3.15;1.20;;;;;;;12.97;54.83;101544.47;4999111;28;20073;-76
2023/08/13 00:08:27;;;;;;;4.28;0.85;;;;;;;12.94;54.74;101533.22;4950945;28;20046;-77
2023/08/13 00:10:52;;;;;;;6.05;1.33;;;;;;;12.90;54.74;101543.00;4978495;28;20033;-77
2023/08/13 00:13:17;;;;;;;3.92;1.25;;;;;;;12.94;54.63;101543.72;4978993;28;20056;-77
2023/08/13 00:15:43;;;;;;;5.15;1.30;;;;;;;12.96;54.63;101541.88;4998286;28;20113;-76
2023/08/13 00:18:10;;;;;;;6.60;1.10;;;;;;;12.97;54.62;101539.22;4987062;28;20091;-78
2023/08/13 00:20:36;;;;;;;2.83;1.15;;;;;;;12.95;54.73;101541.03;4993349;28;20034;-76
2023/08/13 00:23:01;;;;;;;3.40;1.02;;;;;;;12.98;54.81;101540.94;4980761;28;20408;-77
2023/08/13 00:25:27;;;;;;;3.83;1.00;;;;;;;13.03;54.46;101538.97;4982881;28;20038;-75
2023/08/13 00:27:52;;;;;;;7.15;1.63;;;;;;;12.99;54.67;101534.75;4982952;28;20050;-76
2023/08/13 00:30:20;;;;;;;6.60;1.42;;;;;;;12.95;54.25;101537.56;4996808;28;20040;-75
2023/08/13 00:32:46;;;;;;;7.28;1.70;;;;;;;12.92;54.57;101541.19;4977398;28;20153;-77
2023/08/13 00:35:11;;;;;;;9.15;1.33;;;;;;;12.89;54.64;101536.03;4988596;28;20186;-76
2023/08/13 00:37:37;;;;;;;9.48;1.40;;;;;;;12.82;54.71;101540.66;4979563;28;20048;-75
2023/08/13 00:40:06;;;;;;;3.15;0.70;;;;;;;12.78;54.84;101544.34;4983925;28;20072;-75
2023/08/13 00:42:31;;;;;;;4.05;1.08;;;;;;;12.73;54.91;101543.66;4983445;28;20073;-76
2023/08/13 00:44:57;;;;;;;3.83;0.57;;;;;;;12.77;54.71;101547.03;4983031;28;20058;-76
2023/08/13 00:47:22;;;;;;;5.40;0.98;;;;;;;12.76;54.64;101542.66;4997733;28;20077;-76
2023/08/13 00:49:49;;;;;;;8.13;1.27;;;;;;;12.64;54.88;101547.44;4983902;28;20033;-77
2023/08/13 00:52:16;;;;;;;8.20;1.25;;;;;;;12.63;55.26;101540.50;4996598;28;20022;-77
2023/08/13 00:54:42;;;;;;;11.82;2.60;;;;;;;12.57;55.25;101543.34;4976276;28;20123;-77
2023/08/13 00:57:11;;;;;;;3.75;1.08;;;;;;;12.51;55.57;101556.69;4980795;28;20046;-76
2023/08/13 00:59:38;;;;;;;5.85;1.40;;;;;;;12.49;55.78;101553.25;4992227;28;20030;-76
2023/08/13 01:02:03;;;;;;;5.60;1.70;;;;;;;12.50;55.77;101549.75;4979648;28;20596;-77
2023/08/13 01:04:29;;;;;;;7.78;1.38;;;;;;;12.48;55.63;101552.41;4984899;28;20042;-77
2023/08/13 01:07:24;;;;;;;3.70;1.70;;;;;;;12.42;55.80;101551.78;4997790;28;20038;-76
2023/08/13 01:10:35;;;;;;;7.05;1.30;;;;;;;12.42;56.07;101546.53;4980070;28;20048;-77
2023/08/13 01:13:09;;;;;;;4.82;0.98;;;;;;;12.43;55.85;101543.03;4902700;29;20130;-76
2023/08/13 01:15:40;;;;;;;4.22;1.23;;;;;;;12.41;55.73;101550.09;4889310;29;20114;-79
2023/08/13 01:18:07;;;;;;;3.90;1.23;;;;;;;12.35;55.98;101539.81;4951204;28;20757;-78
2023/08/13 01:20:36;;;;;;;6.15;1.27;;;;;;;12.31;55.93;101544.31;4975960;28;20042;-76
2023/08/13 01:23:03;;;;;;;6.78;1.10;;;;;;;12.28;56.43;101540.03;4946940;28;20038;-77
2023/08/13 01:25:30;;;;;;;3.88;1.52;;;;;;;12.26;56.32;101539.22;4984683;28;20038;-77
2023/08/13 01:28:25;;;;;;;3.38;0.90;;;;;;;12.26;56.21;101536.63;4994841;28;20562;-77
2023/08/13 01:31:30;;;;;;;7.13;1.15;;;;;;;12.20;56.43;101544.72;4996926;28;20030;-77
2023/08/13 01:33:58;;;;;;;7.30;1.42;;;;;;;12.14;56.27;101542.31;4925775;28;20037;-77
2023/08/13 01:36:25;;;;;;;5.13;1.08;;;;;;;12.19;56.35;101537.75;4992767;28;20033;-76
2023/08/13 01:38:53;;;;;;;13.50;1.75;;;;;;;12.13;56.37;101537.97;4994782;28;20532;-76
2023/08/13 01:41:19;;;;;;;6.32;0.98;;;;;;;12.13;56.39;101540.59;4977222;28;20041;-77
2023/08/13 01:43:44;;;;;;;6.00;1.38;;;;;;;12.11;56.63;101541.56;4939691;28;20056;-76
2023/08/13 01:46:09;;;;;;;8.13;1.63;;;;;;;12.18;56.32;101548.28;4980454;28;20128;-76
2023/08/13 01:48:35;;;;;;;8.05;2.53;;;;;;;12.20;56.40;101539.47;4966011;28;20049;-75
2023/08/13 01:51:00;;;;;;;2.78;1.10;;;;;;;12.19;56.27;101548.22;4983795;28;20188;-75
2023/08/13 01:53:26;;;;;;;3.47;1.00;;;;;;;12.30;56.15;101547.84;4962940;28;20044;-76
2023/08/13 01:55:52;;;;;;;5.80;1.27;;;;;;;12.26;55.95;101549.72;4985993;28;20201;-75
2023/08/13 01:58:17;;;;;;;2.92;1.25;;;;;;;12.25;56.06;101552.41;4961113;28;20045;-78
2023/08/13 02:00:42;;;;;;;6.78;0.93;;;;;;;12.22;56.04;101548.16;4978268;28;20084;-78
2023/08/13 02:03:10;;;;;;;5.03;1.00;;;;;;;12.25;56.28;101545.41;4979213;28;20457;-76
2023/08/13 02:05:37;;;;;;;3.25;1.23;;;;;;;12.27;56.51;101546.19;4994421;28;20045;-77
2023/08/13 02:08:03;;;;;;;2.42;1.50;;;;;;;12.27;56.44;101543.59;4976968;28;20521;-75
2023/08/13 02:10:32;;;;;;;6.20;1.60;;;;;;;12.31;56.11;101543.47;4977959;28;20029;-75
2023/08/13 02:12:59;;;;;;;11.32;1.30;;;;;;;12.33;56.17;101539.00;4962225;28;20570;-77
2023/08/13 02:15:24;;;;;;;3.83;1.02;;;;;;;12.32;56.05;101540.78;4977709;28;20517;-76
2023/08/13 02:17:50;;;;;;;7.97;1.05;;;;;;;12.27;56.35;101540.97;4978549;28;20073;-75
2023/08/13 02:20:15;;;;;;;4.88;1.05;;;;;;;12.25;56.36;101540.16;4997277;28;20030;-77
2023/08/13 02:22:41;;;;;;;5.60;0.75;;;;;;;12.26;56.18;101541.84;4975747;28;20052;-76
2023/08/13 02:25:07;;;;;;;8.10;1.00;;;;;;;12.28;56.09;101540.03;4984210;28;20043;-77
2023/08/13 02:27:32;;;;;;;4.90;0.93;;;;;;;12.34;55.96;101543.38;4976702;28;20073;-75
2023/08/13 02:30:00;;;;;;;2.22;1.00;;;;;;;12.35;55.71;101534.56;4981624;28;20029;-77
2023/08/13 02:32:25;;;;;;;4.85;1.20;;;;;;;12.33;55.72;101539.00;4991814;28;20041;-76
2023/08/13 02:34:51;;;;;;;4.50;1.13;;;;;;;12.39;55.85;101547.50;4962871;28;20646;-76
2023/08/13 02:37:16;;;;;;;3.38;0.80;;;;;;;12.32;55.85;101545.19;4980349;28;20551;-77
2023/08/13 02:39:42;;;;;;;10.93;1.23;;;;;;;12.37;55.65;101551.09;4977202;28;20049;-77
2023/08/13 02:42:07;;;;;;;5.15;1.02;;;;;;;12.37;55.62;101553.72;4973918;28;20577;-75
2023/08/13 02:44:33;;;;;;;6.43;1.10;;;;;;;12.33;55.70;101546.88;4973156;28;20105;-77
2023/08/13 02:46:58;;;;;;;3.53;1.23;;;;;;;12.30;55.79;101553.09;4983353;28;20046;-76
2023/08/13 02:49:25;;;;;;;3.13;0.80;;;;;;;12.36;55.79;101557.28;4992960;28;20660;-77
2023/08/13 02:51:50;;;;;;;5.10;1.45;;;;;;;12.42;55.68;101555.28;4977543;28;20172;-76
2023/08/13 02:54:16;;;;;;;8.02;1.85;;;;;;;12.40;55.76;101551.84;4978657;28;20090;-77
2023/08/13 02:56:42;;;;;;;2.92;0.85;;;;;;;12.40;55.28;101554.47;4979194;28;20160;-77
2023/08/13 02:59:07;;;;;;;8.32;1.42;;;;;;;12.34;55.76;101557.31;4979718;28;20052;-77
2023/08/13 03:01:33;;;;;;;3.95;1.02;;;;;;;12.34;55.69;101552.06;4978396;28;20030;-77
2023/08/13 03:04:02;;;;;;;2.35;0.93;;;;;;;12.30;55.57;101553.09;4977758;28;20104;-78
2023/08/13 03:06:29;;;;;;;7.10;1.10;;;;;;;12.27;55.59;101548.81;4978773;28;20610;-77
2023/08/13 03:08:54;;;;;;;5.72;0.93;;;;;;;12.25;55.88;101545.41;4976333;28;20054;-77
2023/08/13 03:11:23;;;;;;;7.75;1.52;;;;;;;12.26;55.87;101544.47;4995448;28;20505;-76
2023/08/13 03:13:50;;;;;;;7.53;0.90;;;;;;;12.28;55.86;101547.06;4977499;28;20104;-75
2023/08/13 03:16:17;;;;;;;7.35;1.48;;;;;;;12.23;55.96;101541.97;4995599;28;20042;-75
2023/08/13 03:18:42;;;;;;;8.77;0.88;;;;;;;12.29;55.88;101544.38;4992887;28;20252;-77
2023/08/13 03:21:12;;;;;;;4.07;0.95;;;;;;;12.29;55.72;101540.91;4983950;28;20592;-79
2023/08/13 03:23:38;;;;;;;7.45;1.33;;;;;;;12.22;56.04;101540.28;4982690;28;20042;-77
2023/08/13 03:26:04;;;;;;;8.48;1.75;;;;;;;12.21;56.11;101542.94;4982028;28;20026;-76
2023/08/13 03:28:30;;;;;;;3.70;1.10;;;;;;;12.22;56.00;101549.88;4978047;28;20803;-76
2023/08/13 03:31:03;;;;;;;4.25;1.38;;;;;;;12.23;56.14;101552.47;4983157;28;20066;-75
2023/08/13 03:33:41;;;;;;;6.38;1.05;;;;;;;12.21;55.98;101545.56;4981428;28;20042;-76
2023/08/13 03:36:06;;;;;;;8.88;1.48;;;;;;;12.21;56.04;101543.78;4980240;28;20108;-78
2023/08/13 03:38:34;;;;;;;4.60;0.85;;;;;;;12.24;56.02;101548.91;4982416;28;20108;-76
2023/08/13 03:40:59;;;;;;;8.35;0.93;;;;;;;12.22;56.01;101540.28;4985192;28;20029;-77
2023/08/13 03:43:26;;;;;;;5.68;1.10;;;;;;;12.20;55.96;101541.22;4982290;28;20066;-77
2023/08/13 03:45:52;;;;;;;3.65;1.05;;;;;;;12.19;56.13;101544.78;4981524;28;20068;-78
2023/08/13 03:48:17;;;;;;;5.15;1.30;;;;;;;12.16;55.88;101539.66;4997647;28;20063;-76
2023/08/13 03:50:44;;;;;;;2.70;0.80;;;;;;;12.12;56.12;101541.50;4996258;28;20025;-75
2023/08/13 03:53:11;;;;;;;2.78;0.82;;;;;;;12.10;56.24;101542.47;4998904;28;20110;-76
2023/08/13 03:55:39;;;;;;;8.82;1.08;;;;;;;12.05;56.32;101545.28;4980091;28;20103;-76
2023/08/13 03:58:07;;;;;;;3.53;0.80;;;;;;;12.06;56.09;101549.59;4979777;28;20042;-77
2023/08/13 04:00:32;;;;;;;2.63;0.82;;;;;;;12.03;56.40;101552.31;4977725;28;20044;-77
2023/08/13 04:03:01;;;;;;;3.45;1.00;;;;;;;12.05;56.43;101558.38;4961105;28;20049;-75
2023/08/13 04:05:26;;;;;;;9.68;1.27;;;;;;;12.04;56.48;101557.53;4983473;28;20034;-76
2023/08/13 04:07:52;;;;;;;5.40;1.27;;;;;;;12.04;56.52;101552.28;4982381;28;20065;-78
2023/08/13 04:10:17;;;;;;;10.93;1.48;;;;;;;11.99;56.65;101554.19;4965966;28;20045;-76
2023/08/13 04:12:44;;;;;;;4.80;1.67;;;;;;;12.03;56.67;101565.44;4975959;28;20049;-77
2023/08/13 04:15:10;;;;;;;7.68;0.70;;;;;;;12.04;56.80;101564.50;4974644;28;20044;-77
2023/08/13 04:17:38;;;;;;;9.43;1.52;;;;;;;12.05;56.96;101563.63;4958725;28;20049;-74
2023/08/13 04:20:05;;;;;;;12.77;1.08;;;;;;;12.06;56.78;101557.44;4984603;28;20030;-76
2023/08/13 04:22:30;;;;;;;7.13;1.40;;;;;;;12.16;56.78;101565.84;4982439;28;20038;-77
2023/08/13 04:24:56;;;;;;;6.93;0.65;;;;;;;12.23;56.44;101562.94;4995677;28;20448;-76
2023/08/13 04:27:23;;;;;;;5.20;1.00;;;;;;;12.25;56.39;101568.16;4978344;28;20124;-76
2023/08/13 04:29:50;;;;;;;6.70;1.20;;;;;;;12.25;56.51;101569.00;4980577;28;20103;-77
2023/08/13 04:32:16;;;;;;;6.38;0.68;;;;;;;12.32;56.41;101571.41;4964346;28;20117;-75
2023/08/13 04:34:42;;;;;;;5.32;1.45;;;;;;;12.37;56.18;101572.06;4962382;28;20116;-75
2023/08/13 04:37:07;;;;;;;7.30;0.90;;;;;;;12.32;56.22;101568.78;4983925;28;20053;-75
2023/08/13 04:39:33;;;;;;;4.68;1.00;;;;;;;12.39;56.09;101578.13;4979949;28;20508;-76
2023/08/13 04:42:00;;;;;;;5.25;0.93;;;;;;;12.38;56.19;101571.16;4982080;28;20037;-77
2023/08/13 04:44:27;;;;;;;11.27;1.98;;;;;;;12.44;56.05;101571.78;4980930;28;20464;-76
2023/08/13 04:46:53;;;;;;;10.00;1.60;;;;;;;12.52;55.98;101566.28;4978218;28;21354;-74
2023/08/13 04:49:21;;;;;;;8.18;1.20;;;;;;;12.63;55.53;101565.88;4980160;28;20684;-77
2023/08/13 04:51:47;;;;;;;10.23;1.58;;;;;;;12.60;55.75;101566.84;4976885;28;20040;-74
2023/08/13 04:54:13;;;;;;;5.10;1.20;;;;;;;12.79;55.36;101563.56;4980224;28;20741;-77
2023/08/13 04:56:39;;;;;;;6.75;1.65;;;;;;;12.84;55.33;101559.81;4979716;28;20060;-77
2023/08/13 04:59:06;;;;;;;5.68;1.38;;;;;;;12.92;55.01;101569.19;4981938;28;20099;-76
2023/08/13 05:01:35;;;;;;;7.18;1.23;;;;;;;13.06;55.05;101565.09;4982863;28;20442;-77
2023/08/13 05:04:02;;;;;;;5.22;1.35;;;;;;;13.18;54.84;101565.50;4993282;28;20044;-76
2023/08/13 05:06:31;;;;;;;5.25;1.58;;;;;;;13.27;54.69;101557.25;4978628;28;20037;-76
2023/08/13 05:08:58;;;;;;;2.75;0.98;;;;;;;13.40;54.58;101558.47;4979112;28;20046;-76
2023/08/13 05:11:24;;;;;;;4.47;1.25;;;;;;;13.59;54.39;101557.78;4912232;28;1369144;-76
2023/08/13 05:13:49;;;;;;;3.13;1.17;;;;;;;13.82;53.80;101560.25;4975458;28;20038;-76
2023/08/13 05:16:15;;;;;;;6.50;1.40;;;;;;;14.10;53.55;101553.81;4980142;28;20037;-77
2023/08/13 05:18:42;;;;;;;3.92;1.60;;;;;;;14.24;52.46;101559.31;4980735;28;20435;-79
2023/08/13 05:21:08;;;;;;;4.72;0.93;;;;;;;14.14;52.10;101556.25;4977150;28;20045;-77
2023/08/13 05:23:34;;;;;;;3.83;0.95;;;;;;;14.15;52.96;101554.47;4979632;28;20046;-77
2023/08/13 05:26:00;;;;;;;10.30;1.98;;;;;;;14.34;52.65;101554.47;4982977;28;20034;-77
2023/08/13 05:28:26;;;;;;;7.93;1.45;;;;;;;14.72;52.08;101547.50;4982017;28;20052;-77
2023/08/13 05:30:52;;;;;;;8.73;1.17;;;;;;;15.95;49.69;101556.41;4991265;28;21285;-76
2023/08/13 05:33:19;;;;;;;6.07;1.65;;;;;;;17.61;47.33;101548.16;4979615;28;20056;-77
2023/08/13 05:35:45;;;;;;;7.50;1.73;;;;;;;18.60;43.61;101550.09;4980519;28;20026;-76
2023/08/13 05:41:58;;;;;;;5.57;0.93;;;;;;;20.27;39.15;101549.56;4978225;28;20147;-76
2023/08/13 05:44:24;;;;;;;3.20;0.90;;;;;;;20.37;39.10;101556.88;4975289;28;20720;-77
2023/08/13 05:46:50;;;;;;;7.05;0.80;;;;;;;20.11;39.36;101563.03;4981081;28;20052;-76
2023/08/13 05:49:15;;;;;;;7.43;1.25;;;;;;;20.13;39.29;101558.47;4980709;28;20123;-77
2023/08/13 05:51:40;;;;;;;7.43;1.08;;;;;;;19.27;40.64;101553.66;4993631;28;21308;-76
2023/08/13 05:54:08;;;;;;;11.18;1.45;;;;;;;20.90;37.31;101550.34;4961840;28;20713;-78
2023/08/13 05:56:36;;;;;;;6.43;0.85;;;;;;;22.00;35.85;101542.97;4977162;28;20078;-77
2023/08/13 05:59:01;;;;;;;6.95;0.73;;;;;;;23.29;34.37;101542.41;4975411;28;20127;-77
2023/08/13 06:01:28;;;;;;;3.53;1.50;;;;;;;24.01;32.68;101538.94;4994582;28;20542;-77
2023/08/13 06:03:54;;;;;;;3.50;0.70;;;;;;;23.59;31.90;101538.97;4961136;28;20111;-77
2023/08/13 06:06:20;;;;;;;11.68;1.70;;;;;;;23.21;33.00;101537.72;4980921;28;20041;-77
2023/08/13 06:08:46;;;;;;;6.47;0.90;;;;;;;23.23;34.29;101554.44;4995744;28;20033;-76
2023/08/13 06:11:12;;;;;;;4.80;0.77;;;;;;;23.22;34.15;101547.38;4978630;28;20500;-77
2023/08/13 06:13:38;;;;;;;3.95;1.15;;;;;;;23.82;33.49;101556.50;4992642;28;20048;-76
2023/08/13 06:16:06;;;;;;;6.43;0.95;;;;;;;21.84;36.03;101559.28;4988675;28;20038;-76
2023/08/13 06:18:32;;;;;;;5.80;1.30;;;;;;;22.30;34.87;101547.72;4976411;28;20049;-76
2023/08/13 06:20:57;;;;;;;11.32;1.70;;;;;;;22.20;35.36;101548.56;4976915;28;20668;-75
2023/08/13 06:23:23;;;;;;;7.50;1.25;;;;;;;23.28;34.19;101554.91;4978435;28;20137;-77
2023/08/13 06:25:48;;;;;;;6.47;1.05;;;;;;;24.12;32.12;101554.84;4959772;28;20410;-77
2023/08/13 06:28:14;;;;;;;9.23;2.53;;;;;;;24.50;32.66;101556.00;4995776;28;20144;-77
2023/08/13 06:30:39;;;;;;;3.72;1.05;;;;;;;21.71;36.47;101564.72;4994934;28;20049;-76
2023/08/13 06:33:05;;;;;;;6.03;0.80;;;;;;;19.88;40.60;101564.63;4966798;28;20412;-76
2023/08/13 06:35:30;;;;;;;6.75;0.80;;;;;;;20.47;41.19;101561.41;4978404;28;20038;-76
2023/08/13 06:37:56;;;;;;;8.25;2.35;;;;;;;21.71;38.79;101574.50;4963578;28;20053;-76
2023/08/13 06:40:21;;;;;;;10.35;1.92;;;;;;;20.72;39.06;101562.31;4980664;28;20058;-77
2023/08/13 06:42:47;;;;;;;9.48;1.25;;;;;;;19.19;42.14;101565.72;4975372;28;20056;-78
2023/08/13 06:45:12;;;;;;;7.40;1.20;;;;;;;21.64;37.98;101566.13;4976110;28;20057;-78
2023/08/13 06:47:38;;;;;;;4.80;1.55;;;;;;;21.59;37.80;101570.13;4977397;28;20042;-77
2023/08/13 06:50:04;;;;;;;9.48;1.60;;;;;;;21.94;38.97;101572.75;4975784;28;20537;-77
2023/08/13 06:52:30;;;;;;;5.22;0.88;;;;;;;22.23;36.02;101572.31;4973425;28;20133;-76
2023/08/13 06:54:56;;;;;;;6.00;1.23;;;;;;;20.47;40.74;101572.03;4979592;28;20592;-78
2023/08/13 06:57:21;;;;;;;6.05;1.30;;;;;;;20.29;40.97;101562.72;4992001;28;20038;-76
2023/08/13 06:59:47;;;;;;;12.88;1.75;;;;;;;19.01;44.35;101568.66;4958786;28;20256;-76
2023/08/13 07:02:13;;;;;;;4.07;2.05;;;;;;;21.38;38.92;101564.56;4995991;28;20055;-80
2023/08/13 07:04:38;;;;;;;10.23;1.45;;;;;;;22.08;38.13;101561.88;4974161;28;20042;-78
2023/08/13 07:07:04;;;;;;;9.30;1.60;;;;;;;21.69;38.80;101560.47;4992669;28;20579;-76
2023/08/13 07:09:29;;;;;;;9.95;1.42;;;;;;;20.65;40.48;101569.03;4974813;28;20065;-79
2023/08/13 07:11:55;;;;;;;8.02;1.80;;;;;;;19.66;42.35;101567.06;4991265;28;20042;-74
2023/08/13 07:14:20;;;;;;;9.50;1.45;;;;;;;17.92;45.85;101577.22;4977165;28;20128;-76
2023/08/13 07:16:46;;;;;;;5.22;1.23;;;;;;;18.27;45.21;101573.28;4974790;28;20042;-75
2023/08/13 07:19:12;;;;;;;12.02;2.10;;;;;;;17.19;47.66;101573.44;4979610;28;20048;-76
2023/08/13 07:21:37;;;;;;;4.53;1.55;;;;;;;18.24;45.80;101565.53;4974092;28;20565;-77
2023/08/13 07:24:04;;;;;;;5.93;0.93;;;;;;;19.61;43.88;101564.69;4980608;28;20133;-75
2023/08/13 07:26:30;;;;;;;11.55;1.40;;;;;;;22.41;38.35;101570.00;4979518;28;20049;-76
2023/08/13 07:28:56;;;;;;;9.00;1.60;;;;;;;23.44;34.65;101566.97;4977344;28;20041;-76
2023/08/13 07:31:21;;;;;;;9.48;2.00;;;;;;;25.64;31.71;101567.06;4974903;28;20048;-77
2023/08/13 07:33:47;;;;;;;4.35;1.17;;;;;;;25.20;32.34;101562.16;4974907;28;20136;-78
2023/08/13 07:36:12;;;;;;;8.40;1.23;;;;;;;26.73;29.44;101571.88;4963563;28;20117;-78
2023/08/13 07:38:38;;;;;;;3.33;0.70;;;;;;;26.69;29.75;101568.63;4978399;28;20042;-78
2023/08/13 07:41:03;;;;;;;9.68;1.90;;;;;;;27.34;29.54;101568.44;4986209;28;20787;-77
2023/08/13 07:43:31;;;;;;;3.63;1.20;;;;;;;27.71;27.81;101580.81;4974981;28;20066;-78
2023/08/13 07:45:56;;;;;;;10.02;1.70;;;;;;;26.43;29.29;101579.22;4962784;28;20127;-77
2023/08/13 07:48:22;;;;;;;4.13;1.08;;;;;;;26.47;29.79;101575.25;4977464;28;20076;-76
2023/08/13 07:50:47;;;;;;;8.65;0.95;;;;;;;24.93;32.03;101580.69;4977334;28;20026;-77
2023/08/13 07:53:13;;;;;;;8.20;1.80;;;;;;;22.29;36.74;101579.78;4977854;28;20148;-77
2023/08/13 07:55:39;;;;;;;5.60;1.83;;;;;;;21.82;38.09;101581.66;4990350;28;20392;-77
2023/08/13 07:58:05;;;;;;;8.25;2.28;;;;;;;20.25;41.29;101579.81;4994987;28;20422;-76
2023/08/13 08:00:30;;;;;;;12.35;1.17;;;;;;;20.66;41.24;101586.66;4976051;28;20621;-77
2023/08/13 08:02:56;;;;;;;5.03;1.02;;;;;;;19.56;42.88;101590.69;4994882;28;20057;-77
2023/08/13 08:05:21;;;;;;;5.82;1.65;;;;;;;19.54;43.04;101592.53;4975179;28;20037;-77
2023/08/13 08:07:47;;;;;;;6.30;1.55;;;;;;;20.33;42.18;101598.72;4978806;28;20623;-78
2023/08/13 08:10:13;;;;;;;6.43;1.42;;;;;;;20.74;41.23;101585.13;4995411;28;20069;-77
2023/08/13 08:12:38;;;;;;;5.93;1.40;;;;;;;19.70;43.07;101587.09;4983018;28;20072;-77
2023/08/13 08:15:05;;;;;;;7.75;1.73;;;;;;;19.64;43.19;101601.63;4985038;28;20072;-77
2023/08/13 08:17:30;;;;;;;7.55;2.22;;;;;;;19.25;44.91;101587.38;4979736;28;20115;-75
2023/08/13 08:19:56;;;;;;;5.63;1.55;;;;;;;19.00;46.43;101589.94;4969292;28;20041;-77
2023/08/13 08:22:22;;;;;;;7.90;1.63;;;;;;;20.13;44.10;101594.78;4981864;28;20050;-77
2023/08/13 08:24:47;;;;;;;7.88;1.73;;;;;;;20.30;42.19;101586.50;4983755;28;20026;-77
2023/08/13 08:27:13;;;;;;;7.38;1.15;;;;;;;21.93;39.74;101589.66;4982195;28;20310;-77
2023/08/13 08:29:38;;;;;;;4.60;1.58;;;;;;;22.09;38.73;101582.22;4981162;28;20034;-78
2023/08/13 08:32:04;;;;;;;11.18;1.40;;;;;;;22.86;37.86;101588.59;4977911;28;20034;-77
2023/08/13 08:34:33;;;;;;;9.98;1.90;;;;;;;24.52;34.74;101580.75;4981930;28;20038;-77
2023/08/13 08:36:59;;;;;;;6.82;1.38;;;;;;;23.13;36.11;101582.81;4982700;28;20048;-77
2023/08/13 08:39:24;;;;;;;8.32;1.63;;;;;;;22.90;37.39;101595.38;4983644;28;20081;-78
2023/08/13 08:41:54;;;;;;;10.50;1.95;;;;;;;24.31;35.17;101587.97;4997945;28;20459;-78
2023/08/13 08:44:21;;;;;;;9.57;2.13;;;;;;;22.89;37.08;101593.66;4986764;28;20125;-78
2023/08/13 08:46:51;;;;;;;8.60;1.48;;;;;;;21.18;39.76;101593.53;4967488;28;20068;-77
2023/08/13 08:49:18;;;;;;;5.35;1.58;;;;;;;21.72;38.75;101587.69;4984527;28;20058;-78
2023/08/13 08:51:48;;;;;;;9.85;3.05;;;;;;;21.61;39.10;101585.00;4982425;28;20108;-79
2023/08/13 08:54:15;;;;;;;16.15;1.50;;;;;;;22.02;38.62;101585.44;4964673;28;20745;-79
2023/08/13 08:56:41;;;;;;;6.57;1.23;;;;;;;22.67;37.96;101592.69;4995254;28;20038;-78
2023/08/13 08:59:06;;;;;;;4.72;1.08;;;;;;;23.06;37.13;101584.31;4982968;28;20041;-77
2023/08/13 09:01:32;;;;;;;7.30;1.35;;;;;;;23.20;35.52;101586.66;4980942;28;20030;-79
2023/08/13 09:03:58;;;;;;;10.82;1.40;;;;;;;23.60;34.85;101584.19;4980096;28;20042;-79
2023/08/13 09:06:23;;;;;;;4.75;0.90;;;;;;;23.74;36.00;101584.84;4983608;28;20041;-77
2023/08/13 09:08:49;;;;;;;10.07;0.93;;;;;;;23.96;33.73;101594.56;4997191;28;20121;-77
2023/08/13 09:11:14;;;;;;;6.07;1.25;;;;;;;23.40;35.25;101593.88;4980122;28;20056;-78
2023/08/13 09:13:50;;;;;;;6.13;1.05;;;;;;;21.56;38.20;101589.84;4983002;28;20042;-77
2023/08/13 09:16:16;;;;;;;6.88;1.02;;;;;;;20.87;39.93;101595.75;4983004;28;20046;-78
2023/08/13 09:18:41;;;;;;;9.70;0.82;;;;;;;21.24;40.15;101595.69;4993562;28;20041;-80
2023/08/13 09:21:09;;;;;;;6.40;1.10;;;;;;;21.24;39.46;101582.41;4985263;28;20096;-79
2023/08/13 09:23:37;;;;;;;5.30;1.15;;;;;;;22.96;36.73;101578.88;4996365;28;21948;-79
2023/08/13 09:26:03;;;;;;;9.52;0.90;;;;;;;22.09;38.13;101578.69;4986777;28;20129;-78
2023/08/13 09:28:28;;;;;;;6.95;1.05;;;;;;;22.65;37.03;101585.81;4979423;28;20052;-80
2023/08/13 09:30:57;;;;;;;5.57;0.73;;;;;;;21.17;39.18;101589.16;4981332;28;20045;-78
2023/08/13 09:33:22;;;;;;;7.20;0.77;;;;;;;21.44;39.14;101575.59;4961540;28;20058;-77
2023/08/13 09:35:48;;;;;;;3.67;0.93;;;;;;;21.49;39.65;101576.16;4992825;28;20694;-76
2023/08/13 09:38:13;;;;;;;7.53;1.17;;;;;;;20.92;40.37;101569.69;4996702;28;20046;-76
2023/08/13 09:40:39;;;;;;;5.18;0.70;;;;;;;20.62;40.89;101569.22;4975318;28;20399;-76
2023/08/13 09:43:06;;;;;;;4.50;0.80;;;;;;;21.64;39.66;101568.78;4977842;28;20049;-77
2023/08/13 09:45:36;;;;;;;7.90;0.80;;;;;;;21.57;38.57;101562.25;4979667;28;20045;-75
2023/08/13 09:48:06;;;;;;;3.08;0.93;;;;;;;22.91;37.00;101562.41;4978529;28;20073;-76
2023/08/13 09:50:34;;;;;;;3.92;0.50;;;;;;;22.93;35.31;101563.13;4978691;28;20492;-76
2023/08/13 09:53:02;;;;;;;2.90;0.50;;;;;;;22.11;36.21;101572.28;4976570;28;20034;-76
2023/08/13 09:55:31;;;;;;;4.57;0.40;;;;;;;20.35;38.82;101562.31;4995107;28;20225;-77
2023/08/13 09:58:00;;;;;;;6.38;0.80;;;;;;;20.81;39.51;101558.97;4990875;28;20459;-77
2023/08/13 10:00:27;;;;;;;4.88;0.60;;;;;;;20.03;40.68;101561.88;4992493;28;20782;-77
2023/08/13 10:02:52;;;;;;;4.55;0.70;;;;;;;20.71;39.76;101561.47;4977139;28;20123;-77
2023/08/13 10:05:19;;;;;;;5.38;0.50;;;;;;;20.39;39.47;101555.78;4980345;28;20038;-76
2023/08/13 10:07:45;;;;;;;2.85;0.82;;;;;;;21.54;38.35;101559.84;4993395;28;20129;-76
2023/08/13 10:10:11;;;;;;;3.22;0.95;;;;;;;20.32;39.64;101551.88;4982891;28;20575;-76
2023/08/13 10:12:38;;;;;;;4.38;0.80;;;;;;;22.59;36.99;101552.53;4977066;28;20057;-77
2023/08/13 10:15:04;;;;;;;5.28;1.52;;;;;;;22.20;37.10;101559.22;4993557;28;20137;-76
2023/08/13 10:17:32;;;;;;;1.50;0.30;;;;;;;22.45;36.63;101564.31;4991153;28;20507;-77
2023/08/13 10:19:58;;;;;;;3.13;0.68;;;;;;;23.30;35.21;101555.63;4978751;28;20040;-76
2023/08/13 10:22:40;;;;;;;3.40;0.40;;;;;;;23.46;35.24;101565.00;4993737;28;20037;-76
2023/08/13 10:25:24;;;;;;;4.47;1.13;;;;;;;22.30;35.67;101577.00;4980363;28;20929;-76
2023/08/13 10:27:53;;;;;;;2.33;0.68;;;;;;;22.87;35.66;101569.81;4978902;28;20045;-76
2023/08/13 10:30:18;;;;;;;4.65;0.63;;;;;;;21.67;36.42;101567.75;4982269;28;20088;-76
2023/08/13 10:33:03;;;;;;;2.17;0.73;;;;;;;21.98;36.40;101566.22;4982326;28;21091;-77
2023/08/13 10:35:39;;;;;;;3.03;0.60;;;;;;;22.20;36.84;101569.88;4995800;28;20259;-76
2023/08/13 10:38:07;;;;;;;2.53;0.75;;;;;;;22.62;35.91;101562.09;4978195;28;20120;-76
2023/08/13 10:40:36;;;;;;;2.90;0.50;;;;;;;22.55;35.37;101567.91;4994462;28;20087;-77
2023/08/13 10:43:03;;;;;;;6.97;0.30;;;;;;;23.59;34.23;101560.31;4955523;28;20043;-77
2023/08/13 10:45:35;;;;;;;4.80;0.77;;;;;;;23.67;33.22;101557.00;4996226;28;20037;-77
2023/08/13 10:48:03;;;;;;;2.55;0.40;;;;;;;23.75;33.00;101571.38;4983825;28;20516;-76
2023/08/13 10:50:42;;;;;;;3.30;0.40;;;;;;;23.32;33.49;101564.34;4981824;28;20045;-77
2023/08/13 10:53:12;;;;;;;3.42;0.50;;;;;;;23.13;35.87;101574.81;4994824;28;20042;-77
2023/08/13 10:55:40;;;;;;;2.00;0.40;;;;;;;24.51;33.43;101568.38;4978998;28;20463;-76
2023/08/13 10:58:08;;;;;;;5.45;1.00;;;;;;;24.63;32.83;101571.78;4963029;28;20052;-76
2023/08/13 11:00:42;;;;;;;4.80;0.80;;;;;;;25.13;31.86;101569.06;4962909;28;20112;-77
2023/08/13 11:03:19;;;;;;;5.30;1.05;;;;;;;24.03;32.78;101572.56;4992842;28;20038;-77
2023/08/13 11:05:46;;;;;;;3.30;0.70;;;;;;;22.38;35.28;101573.72;4996314;28;20101;-76
2023/08/13 11:08:19;;;;;;;4.22;1.10;;;;;;;21.98;36.09;101568.88;4971892;28;20098;-74
2023/08/13 11:10:46;;;;;;;8.50;0.80;;;;;;;22.23;36.08;101574.97;4978423;28;20426;-78
2023/08/13 11:13:12;;;;;;;3.08;0.93;;;;;;;21.59;36.93;101578.09;4952016;28;20066;-76
2023/08/13 11:15:39;;;;;;;5.32;0.65;;;;;;;22.20;36.21;101573.38;4993924;28;20038;-75
2023/08/13 11:18:05;;;;;;;3.33;0.75;;;;;;;22.42;35.78;101566.34;4979442;28;20042;-77
2023/08/13 11:20:30;;;;;;;5.90;1.05;;;;;;;22.47;35.91;101561.50;4976060;28;20399;-75
2023/08/13 11:22:56;;;;;;;2.25;0.60;;;;;;;22.94;35.25;101565.69;4977871;28;20080;-77
2023/08/13 11:25:21;;;;;;;6.18;0.80;;;;;;;23.35;35.92;101558.75;4975584;28;20455;-75
2023/08/13 11:27:47;;;;;;;1.20;0.50;;;;;;;23.79;34.53;101556.78;4993678;28;20046;-75